Sweetwater, Nebraska
Current Conditions -  °F | °C
As of 10:15 AM on Wednesday 26 Nov 2014 (Local Time) from KEAR Reporting Station
Overcast Overcast  
Wind Chill: 13°   Ceiling: 2100
Heat Index: 28°   Visibility: 10mi
Dew Point: 19°   Wind: 30mph
Humidity: 69%   Direction: 300°WNW
Pressure: 30.2"   Gusts: 37mph
Location:  41.0033°N, 98.8321°W
Report Text: KEAR 261615Z 30026G32KT 10SM OVC021 M02/M07 A3020 RMK AO1
Loading
Personal Weather Stations






























Interactive Weather Map New forecast layout! Learn more

10-Day Weather Forecast

Advertisements
Track Severe Weather on mobile